Time;durP1;ratioP1;P1;durP2;ratioP2;P2;SDS_P1;SDS_P2;PMS_P1;PMS_P2;Temp;Humidity;BMP_temperature;BMP_pressure;BME280_temperature;BME280_humidity;BME280_pressure;Samples;Min_cycle;Max_cycle;Signal;HPM_P1;HPM_P2
2022/12/14 00:01:40;;;;;;;38.38;13.55;;;;;;;-3.54;100.00;98367.56;4468431;32;20573;-76
2022/12/14 00:04:11;;;;;;;29.58;12.57;;;;;;;-3.55;100.00;98358.22;4465535;32;86063;-76
2022/12/14 00:06:38;;;;;;;33.70;13.85;;;;;;;-3.41;100.00;98358.50;4468319;32;20089;-76
2022/12/14 00:09:05;;;;;;;28.05;11.60;;;;;;;-3.40;100.00;98349.94;4475638;32;20605;-76
2022/12/14 00:11:33;;;;;;;35.80;13.15;;;;;;;-3.37;100.00;98343.88;4483676;31;20101;-76
2022/12/14 00:14:02;;;;;;;33.33;14.35;;;;;;;-3.40;100.00;98350.78;4483982;31;20176;-76
2022/12/14 00:16:31;;;;;;;33.63;15.15;;;;;;;-3.31;100.00;98344.47;4483911;31;20144;-76
2022/12/14 00:19:00;;;;;;;30.80;14.35;;;;;;;-3.36;100.00;98348.94;4486055;31;20127;-76
2022/12/14 00:21:27;;;;;;;33.35;14.05;;;;;;;-3.26;100.00;98346.84;4476978;31;20096;-76
2022/12/14 00:23:56;;;;;;;30.80;12.52;;;;;;;-3.22;100.00;98344.09;4470244;32;20168;-76
2022/12/14 00:26:30;;;;;;;33.22;13.30;;;;;;;-3.27;100.00;98358.81;4470216;32;20161;-76
2022/12/14 00:28:59;;;;;;;31.17;13.95;;;;;;;-3.22;100.00;98353.50;4470267;32;20438;-76
2022/12/14 00:31:26;;;;;;;33.45;13.98;;;;;;;-3.19;100.00;98353.38;4470378;32;20123;-76
2022/12/14 00:33:57;;;;;;;33.58;14.23;;;;;;;-3.18;100.00;98344.78;4470227;32;20096;-76
2022/12/14 00:36:24;;;;;;;28.92;12.15;;;;;;;-3.21;100.00;98352.59;4470138;32;20084;-76
2022/12/14 00:38:51;;;;;;;30.00;12.40;;;;;;;-3.28;100.00;98358.88;4470206;32;20148;-76
2022/12/14 00:41:18;;;;;;;38.00;14.90;;;;;;;-3.18;100.00;98357.59;4469900;32;20104;-76
2022/12/14 00:43:45;;;;;;;33.83;15.13;;;;;;;-3.12;100.00;98359.94;4470151;32;20153;-76
2022/12/14 00:46:16;;;;;;;26.90;12.63;;;;;;;-3.17;100.00;98356.72;4470078;32;20525;-76
2022/12/14 00:48:44;;;;;;;39.95;14.55;;;;;;;-3.14;100.00;98355.75;4470182;32;20093;-77
2022/12/14 00:51:13;;;;;;;32.83;14.20;;;;;;;-3.17;100.00;98361.84;4470145;32;20159;-77
2022/12/14 00:53:43;;;;;;;38.65;14.63;;;;;;;-3.16;100.00;98363.50;4470154;32;20217;-76
2022/12/14 00:56:10;;;;;;;30.80;13.55;;;;;;;-3.12;100.00;98370.19;4470087;32;20118;-76
2022/12/14 00:58:37;;;;;;;36.08;14.87;;;;;;;-3.17;100.00;98366.97;4470012;32;20119;-76
2022/12/14 01:01:06;;;;;;;27.48;13.38;;;;;;;-3.12;100.00;98367.63;4470239;32;20482;-76
2022/12/14 01:03:34;;;;;;;26.23;10.70;;;;;;;-3.14;100.00;98361.72;4470051;32;20157;-77
2022/12/14 01:06:01;;;;;;;32.47;13.75;;;;;;;-3.28;100.00;98364.00;4469763;32;20465;-77
2022/12/14 01:08:34;;;;;;;26.48;12.70;;;;;;;-3.27;100.00;98363.94;4473324;32;20197;-77
2022/12/14 01:11:06;;;;;;;32.20;12.45;;;;;;;-3.22;100.00;98367.12;4485404;31;20160;-77
2022/12/14 01:13:34;;;;;;;39.00;12.43;;;;;;;-3.23;100.00;98359.53;4485866;31;20377;-77
2022/12/14 01:16:06;;;;;;;32.63;13.95;;;;;;;-3.19;100.00;98367.91;4485860;31;20528;-77
2022/12/14 01:18:35;;;;;;;37.60;15.40;;;;;;;-3.22;100.00;98363.75;4485606;31;20088;-77
2022/12/14 01:21:08;;;;;;;27.90;12.30;;;;;;;-3.15;100.00;98377.16;4479170;31;20154;-77
2022/12/14 01:23:37;;;;;;;31.52;14.27;;;;;;;-3.18;100.00;98367.84;4469988;32;20093;-76
2022/12/14 01:26:04;;;;;;;24.65;11.80;;;;;;;-3.19;100.00;98362.78;4469814;32;20472;-77
2022/12/14 01:28:31;;;;;;;23.90;11.10;;;;;;;-3.27;100.00;98363.09;4468613;32;20175;-76
2022/12/14 01:30:58;;;;;;;36.92;14.93;;;;;;;-3.36;100.00;98366.88;4469952;32;20168;-76
2022/12/14 01:33:25;;;;;;;37.33;12.57;;;;;;;-3.48;100.00;98370.72;4469646;32;20096;-76
2022/12/14 01:35:53;;;;;;;31.58;13.70;;;;;;;-3.44;100.00;98364.56;4469827;32;20168;-76
2022/12/14 01:38:20;;;;;;;36.13;13.93;;;;;;;-3.59;100.00;98363.47;4469634;32;20109;-76
2022/12/14 01:40:47;;;;;;;37.28;15.48;;;;;;;-3.44;100.00;98363.75;4469627;32;20089;-76
2022/12/14 01:43:14;;;;;;;32.55;14.10;;;;;;;-3.58;100.00;98352.31;4469806;32;20168;-76
2022/12/14 01:45:42;;;;;;;30.60;13.62;;;;;;;-3.52;100.00;98347.87;4469727;32;20210;-76
2022/12/14 01:48:10;;;;;;;30.00;14.52;;;;;;;-3.40;100.00;98355.91;4469711;32;20139;-76
2022/12/14 01:50:41;;;;;;;38.03;13.77;;;;;;;-3.33;100.00;98350.53;4469922;32;20152;-76
2022/12/14 01:53:13;;;;;;;33.35;15.05;;;;;;;-3.35;100.00;98348.03;4468483;32;20156;-76
2022/12/14 01:55:43;;;;;;;39.47;13.50;;;;;;;-3.30;100.00;98347.84;4469849;32;20498;-76
2022/12/14 01:58:24;;;;;;;32.58;13.02;;;;;;;-3.29;100.00;98341.84;4468903;32;20487;-76
2022/12/14 02:00:56;;;;;;;30.40;11.63;;;;;;;-3.39;100.00;98334.53;4470118;32;20434;-76
2022/12/14 02:03:29;;;;;;;30.25;13.70;;;;;;;-3.34;100.00;98334.34;4469692;32;20088;-76
2022/12/14 02:06:09;;;;;;;31.83;11.98;;;;;;;-3.30;100.00;98335.88;4469822;32;20127;-76
2022/12/14 02:08:37;;;;;;;22.17;10.20;;;;;;;-3.39;100.00;98331.97;4472587;32;20083;-76
2022/12/14 02:11:04;;;;;;;21.45;10.40;;;;;;;-3.30;100.00;98335.88;4483945;32;20164;-76
2022/12/14 02:13:37;;;;;;;31.15;11.77;;;;;;;-3.22;100.00;98327.91;4485427;31;20097;-76
2022/12/14 02:16:05;;;;;;;19.60;10.50;;;;;;;-3.30;100.00;98324.78;4484351;32;20158;-76
2022/12/14 02:18:32;;;;;;;31.40;11.93;;;;;;;-3.46;100.00;98325.41;4485322;32;20152;-76
2022/12/14 02:21:12;;;;;;;23.35;9.90;;;;;;;-3.57;100.00;98328.38;4479041;31;20145;-76
2022/12/14 02:24:16;;;;;;;20.58;8.60;;;;;;;-3.44;100.00;98326.16;4469744;32;20120;-76
2022/12/14 02:27:21;;;;;;;27.92;10.02;;;;;;;-3.33;100.00;98332.59;4469964;32;20084;-76
2022/12/14 02:30:05;;;;;;;28.95;11.65;;;;;;;-3.37;100.00;98331.06;4420607;32;20124;-76
2022/12/14 02:32:51;;;;;;;22.27;9.35;;;;;;;-3.36;100.00;98319.91;4420850;32;20102;-76
2022/12/14 02:35:47;;;;;;;23.85;10.55;;;;;;;-3.36;100.00;98318.22;4420834;32;20268;-76
2022/12/14 02:38:37;;;;;;;26.37;9.93;;;;;;;-3.52;100.00;98317.16;4408063;32;20085;-76
2022/12/14 02:41:10;;;;;;;32.38;12.05;;;;;;;-3.39;100.00;98319.16;4407564;32;20098;-76
2022/12/14 02:43:45;;;;;;;27.20;11.25;;;;;;;-3.35;100.00;98306.22;4408103;32;20135;-76
2022/12/14 02:46:49;;;;;;;28.83;11.02;;;;;;;-3.23;100.00;98310.84;4420787;32;20109;-76
2022/12/14 02:49:41;;;;;;;22.00;9.60;;;;;;;-3.40;100.00;98301.28;4390269;32;20106;-76
2022/12/14 02:52:27;;;;;;;31.92;12.07;;;;;;;-3.30;100.00;98296.63;4390234;32;20540;-76
2022/12/14 02:55:03;;;;;;;26.37;10.68;;;;;;;-3.36;100.00;98304.56;4389916;32;20110;-76
2022/12/14 02:57:55;;;;;;;34.17;11.82;;;;;;;-3.45;100.00;98291.22;4390103;32;20135;-76
2022/12/14 03:00:23;;;;;;;43.78;14.18;;;;;;;-3.47;100.00;98292.19;4345069;33;20128;-76
2022/12/14 03:02:51;;;;;;;27.85;11.88;;;;;;;-3.47;100.00;98290.44;4333052;33;20142;-76
2022/12/14 03:05:18;;;;;;;33.85;10.30;;;;;;;-3.39;100.00;98293.53;4358383;32;20094;-76
2022/12/14 03:07:49;;;;;;;27.20;11.90;;;;;;;-3.39;100.00;98290.97;4374727;32;20098;-76
2022/12/14 03:10:32;;;;;;;32.75;13.25;;;;;;;-3.42;100.00;98285.97;4376516;32;20161;-76
2022/12/14 03:13:27;;;;;;;35.90;14.75;;;;;;;-3.33;100.00;98294.19;4390003;32;20136;-76
2022/12/14 03:16:17;;;;;;;32.53;12.90;;;;;;;-3.50;100.00;98282.88;4389976;32;20111;-76
2022/12/14 03:18:50;;;;;;;23.02;11.05;;;;;;;-3.66;100.00;98281.84;4377830;32;20098;-76
2022/12/14 03:21:21;;;;;;;37.90;12.97;;;;;;;-3.69;100.00;98287.06;4387465;32;20169;-76
2022/12/14 03:23:50;;;;;;;36.97;12.20;;;;;;;-3.81;100.00;98288.41;4374750;32;20114;-76
2022/12/14 03:26:19;;;;;;;37.70;12.73;;;;;;;-3.87;100.00;98289.47;4393455;32;20510;-76
2022/12/14 03:28:57;;;;;;;30.48;12.77;;;;;;;-3.89;100.00;98287.84;4420181;32;20186;-76
2022/12/14 03:31:44;;;;;;;32.38;12.88;;;;;;;-3.82;100.00;98287.53;4420500;32;20183;-76
2022/12/14 03:34:16;;;;;;;24.02;11.07;;;;;;;-3.76;100.00;98276.25;4420267;32;20090;-76
2022/12/14 03:37:01;;;;;;;19.37;10.18;;;;;;;-3.75;100.00;98278.75;4426967;32;20151;-76
2022/12/14 03:39:32;;;;;;;29.12;10.38;;;;;;;-3.68;100.00;98274.22;4467598;32;20503;-76
2022/12/14 03:42:31;;;;;;;36.35;11.07;;;;;;;-3.60;100.00;98271.37;4468912;32;20526;-76
2022/12/14 03:45:20;;;;;;;22.73;10.55;;;;;;;-3.59;100.00;98267.88;4419935;32;20459;-76
2022/12/14 03:47:59;;;;;;;23.35;9.93;;;;;;;-3.45;100.00;98267.34;4420116;32;20128;-76
2022/12/14 03:50:40;;;;;;;22.25;9.70;;;;;;;-3.35;100.00;98271.19;4419901;32;20196;-76
2022/12/14 03:53:15;;;;;;;25.35;10.93;;;;;;;-3.39;100.00;98267.12;4409004;32;20152;-76
2022/12/14 03:55:53;;;;;;;18.87;10.27;;;;;;;-3.23;100.00;98275.00;4421846;32;20440;-76
2022/12/14 03:58:23;;;;;;;22.60;9.52;;;;;;;-3.24;100.00;98265.63;4422114;32;20590;-76
2022/12/14 04:00:59;;;;;;;32.92;13.48;;;;;;;-3.37;100.00;98262.75;4421598;32;20144;-76
2022/12/14 04:04:03;;;;;;;22.15;10.13;;;;;;;-3.33;100.00;98261.75;4409091;32;20440;-76
2022/12/14 04:06:53;;;;;;;33.83;12.63;;;;;;;-3.22;100.00;98253.59;4421494;32;20176;-76
2022/12/14 04:09:32;;;;;;;28.85;12.32;;;;;;;-3.37;100.00;98244.81;4417599;32;20169;-76
2022/12/14 04:20:57;;;;;;;34.55;12.75;;;;;;;-3.60;100.00;98232.97;4426138;32;20140;-76
2022/12/14 04:26:37;;;;;;;36.63;14.55;;;;;;;-3.50;100.00;98221.44;4469000;32;20152;-76
2022/12/14 04:32:00;;;;;;;28.62;12.32;;;;;;;-3.62;100.00;98212.56;4470560;32;20204;-76
2022/12/14 04:34:28;;;;;;;25.83;10.82;;;;;;;-3.67;100.00;98205.94;4469104;32;20149;-76
2022/12/14 04:36:58;;;;;;;31.52;12.23;;;;;;;-3.52;100.00;98189.94;4468934;32;20089;-76
2022/12/14 04:39:38;;;;;;;26.25;9.85;;;;;;;-3.44;100.00;98195.56;4468945;32;20115;-76
2022/12/14 04:42:09;;;;;;;35.97;10.57;;;;;;;-3.52;100.00;98184.81;4469015;32;20130;-76
2022/12/14 04:44:40;;;;;;;34.88;10.43;;;;;;;-3.39;100.00;98182.59;4468999;32;20176;-76
2022/12/14 04:47:10;;;;;;;31.12;11.12;;;;;;;-3.52;100.00;98199.38;4468868;32;20614;-76
2022/12/14 04:49:52;;;;;;;20.88;10.25;;;;;;;-3.47;100.00;98193.13;4468857;32;20089;-76
2022/12/14 04:52:51;;;;;;;21.92;9.23;;;;;;;-3.33;100.00;98190.03;4468945;32;20442;-76
2022/12/14 04:55:40;;;;;;;25.67;10.88;;;;;;;-3.46;100.00;98199.94;4470102;32;20112;-76
2022/12/14 04:58:26;;;;;;;35.83;13.70;;;;;;;-3.36;100.00;98191.88;4470339;32;20089;-76
2022/12/14 05:01:00;;;;;;;18.85;9.80;;;;;;;-3.39;100.00;98183.44;4470134;32;20089;-76
2022/12/14 05:03:33;;;;;;;35.83;11.52;;;;;;;-3.27;100.00;98187.19;4468742;32;20500;-76
2022/12/14 05:06:12;;;;;;;23.08;10.18;;;;;;;-3.27;100.00;98184.66;4468874;32;20209;-76
2022/12/14 05:09:10;;;;;;;25.33;8.52;;;;;;;-3.11;100.00;98196.78;4473442;32;20084;-76
2022/12/14 05:11:56;;;;;;;30.45;11.38;;;;;;;-3.15;100.00;98190.97;4485389;31;20152;-76
2022/12/14 05:14:37;;;;;;;33.75;13.30;;;;;;;-3.18;100.00;98195.37;4485056;32;20165;-77
2022/12/14 05:17:05;;;;;;;20.00;9.20;;;;;;;-3.36;100.00;98202.09;4482482;32;20171;-77
2022/12/14 05:19:36;;;;;;;35.53;15.02;;;;;;;-3.18;100.00;98200.50;4483948;32;20100;-76
2022/12/14 05:22:06;;;;;;;31.77;12.15;;;;;;;-3.09;100.00;98210.34;4472251;31;20156;-76
2022/12/14 05:24:33;;;;;;;31.20;10.77;;;;;;;-3.23;100.00;98213.50;4468960;32;20130;-77
2022/12/14 05:27:00;;;;;;;32.38;12.35;;;;;;;-3.13;100.00;98199.41;4469695;32;20100;-76
2022/12/14 05:29:27;;;;;;;31.83;12.65;;;;;;;-3.01;100.00;98216.00;4469723;32;20530;-77
2022/12/14 05:31:54;;;;;;;21.67;9.65;;;;;;;-3.12;100.00;98200.25;4469670;32;20464;-76
2022/12/14 05:34:22;;;;;;;24.73;9.02;;;;;;;-3.07;100.00;98203.44;4469437;32;20104;-76
2022/12/14 05:36:49;;;;;;;29.12;11.80;;;;;;;-2.94;100.00;98198.62;4469869;32;20164;-76
2022/12/14 05:39:16;;;;;;;26.65;10.70;;;;;;;-2.96;100.00;98195.28;4469923;32;20107;-76
2022/12/14 05:41:43;;;;;;;20.15;9.20;;;;;;;-2.95;100.00;98181.56;4469761;32;20137;-76
2022/12/14 05:44:10;;;;;;;26.92;10.63;;;;;;;-2.95;100.00;98177.28;4470047;32;20175;-76
2022/12/14 05:46:37;;;;;;;17.02;7.78;;;;;;;-2.97;100.00;98173.94;4469822;32;20088;-76
2022/12/14 05:49:05;;;;;;;23.85;8.98;;;;;;;-3.00;100.00;98179.22;4469751;32;20111;-76
2022/12/14 05:51:32;;;;;;;39.22;12.55;;;;;;;-3.01;100.00;98174.16;4469798;32;20101;-76
2022/12/14 05:53:59;;;;;;;28.45;11.40;;;;;;;-3.11;100.00;98181.41;4469894;32;20127;-76
2022/12/14 05:56:26;;;;;;;27.62;10.63;;;;;;;-3.12;100.00;98174.63;4469523;32;20155;-76
2022/12/14 05:58:53;;;;;;;21.12;8.70;;;;;;;-3.08;100.00;98168.47;4469655;32;20136;-76
2022/12/14 06:01:20;;;;;;;20.95;9.85;;;;;;;-3.01;100.00;98151.94;4469458;32;20120;-76
2022/12/14 06:03:50;;;;;;;24.65;8.63;;;;;;;-3.09;100.00;98147.16;4469130;32;20092;-76
2022/12/14 06:06:17;;;;;;;19.77;7.82;;;;;;;-3.07;100.00;98132.53;4469297;32;20127;-76
2022/12/14 06:08:45;;;;;;;21.58;9.57;;;;;;;-2.97;100.00;98139.81;4474475;32;20502;-76
2022/12/14 06:11:17;;;;;;;27.15;11.23;;;;;;;-2.98;100.00;98133.00;4484568;31;20179;-77
2022/12/14 06:13:45;;;;;;;18.40;9.32;;;;;;;-2.97;100.00;98122.69;4481529;31;20104;-78
2022/12/14 06:16:18;;;;;;;23.38;10.85;;;;;;;-3.02;100.00;98124.66;4484338;31;20139;-83
2022/12/14 06:18:53;;;;;;;19.33;8.82;;;;;;;-2.99;100.00;98128.81;4484976;31;20449;-80
2022/12/14 06:21:22;;;;;;;18.50;9.07;;;;;;;-3.04;100.00;98131.56;4481889;31;20097;-80
2022/12/14 06:23:50;;;;;;;23.50;11.07;;;;;;;-3.10;100.00;98132.66;4478185;31;20429;-80
2022/12/14 06:26:17;;;;;;;26.00;11.88;;;;;;;-2.98;100.00;98148.37;4483867;31;20103;-79
2022/12/14 06:28:44;;;;;;;24.98;11.07;;;;;;;-3.13;100.00;98155.87;4484637;31;20092;-79
2022/12/14 06:31:24;;;;;;;17.90;7.95;;;;;;;-3.21;100.00;98170.72;4485315;31;20126;-77
2022/12/14 06:33:54;;;;;;;16.45;8.35;;;;;;;-3.05;100.00;98158.09;4484723;31;20254;-80
2022/12/14 06:36:25;;;;;;;24.17;8.05;;;;;;;-3.04;100.00;98152.06;4485163;31;20496;-79
2022/12/14 06:38:56;;;;;;;25.15;9.73;;;;;;;-3.03;100.00;98128.09;4484779;31;20151;-78
2022/12/14 06:41:23;;;;;;;17.90;7.95;;;;;;;-3.04;100.00;98132.41;4484446;31;20080;-78
2022/12/14 06:43:52;;;;;;;22.48;7.57;;;;;;;-2.96;100.00;98151.75;4484043;31;20126;-78
2022/12/14 06:46:21;;;;;;;22.48;9.93;;;;;;;-2.99;100.00;98154.44;4485019;31;20476;-77
2022/12/14 06:48:53;;;;;;;17.62;8.23;;;;;;;-3.09;100.00;98157.41;4484867;31;20097;-79
2022/12/14 06:51:21;;;;;;;29.60;10.88;;;;;;;-2.86;100.00;98142.75;4484642;31;20477;-80
2022/12/14 06:53:53;;;;;;;21.12;7.57;;;;;;;-2.94;100.00;98137.94;4484990;31;20782;-80
2022/12/14 06:56:21;;;;;;;15.35;8.15;;;;;;;-2.92;100.00;98140.44;4485110;31;20487;-80
2022/12/14 06:58:49;;;;;;;21.25;9.15;;;;;;;-2.86;100.00;98140.19;4484977;31;20084;-80
2022/12/14 07:01:20;;;;;;;24.92;10.80;;;;;;;-2.81;100.00;98133.09;4473262;31;20096;-77
2022/12/14 07:03:53;;;;;;;20.92;8.40;;;;;;;-2.74;100.00;98143.91;4483806;32;20103;-80
2022/12/14 07:06:22;;;;;;;24.52;9.48;;;;;;;-2.72;100.00;98137.00;4480663;31;20199;-79
2022/12/14 07:08:52;;;;;;;21.25;8.85;;;;;;;-2.71;100.00;98121.53;4483724;32;20120;-82
2022/12/14 07:11:20;;;;;;;21.12;9.73;;;;;;;-2.82;100.00;98126.31;4474128;32;20114;-80
2022/12/14 07:13:47;;;;;;;22.23;11.32;;;;;;;-2.79;100.00;98118.47;4484714;31;20166;-79
2022/12/14 07:16:21;;;;;;;18.50;8.77;;;;;;;-2.73;100.00;98130.19;4484923;31;20088;-81
2022/12/14 07:18:49;;;;;;;23.92;12.73;;;;;;;-2.82;100.00;98122.91;4482168;31;20794;-77
2022/12/14 07:21:17;;;;;;;14.70;8.60;;;;;;;-2.80;100.00;98119.41;4476566;31;20163;-81
2022/12/14 07:23:46;;;;;;;18.33;8.40;;;;;;;-2.74;100.00;98113.13;4468841;32;20161;-80
2022/12/14 07:26:15;;;;;;;17.52;8.27;;;;;;;-2.75;100.00;98109.75;4473056;32;20461;-80
2022/12/14 07:28:44;;;;;;;16.92;7.93;;;;;;;-2.79;100.00;98109.97;4478283;32;20096;-76
2022/12/14 07:31:16;;;;;;;14.00;7.47;;;;;;;-2.74;100.00;98108.00;4469144;32;20588;-79
2022/12/14 07:33:44;;;;;;;20.48;9.40;;;;;;;-2.73;100.00;98109.69;4483040;32;20149;-80
2022/12/14 07:36:16;;;;;;;21.40;10.20;;;;;;;-2.76;100.00;98114.94;4484827;31;20171;-80
2022/12/14 07:38:45;;;;;;;21.02;9.43;;;;;;;-2.69;100.00;98116.34;4482138;31;20107;-83
2022/12/14 07:41:24;;;;;;;15.43;6.25;;;;;;;-2.73;100.00;98125.87;4481760;31;20114;-81
2022/12/14 07:43:52;;;;;;;21.35;9.35;;;;;;;-2.67;100.00;98140.16;4480860;32;20160;-77
2022/12/14 07:46:22;;;;;;;17.25;6.68;;;;;;;-2.54;100.00;98137.88;4475432;31;20097;-78
2022/12/14 07:48:52;;;;;;;25.15;8.63;;;;;;;-2.57;100.00;98130.34;4478286;32;20123;-77
2022/12/14 07:51:24;;;;;;;15.10;7.60;;;;;;;-2.56;100.00;98139.66;4483833;31;20127;-76
2022/12/14 07:53:51;;;;;;;19.92;8.05;;;;;;;-2.48;100.00;98145.28;4481203;31;20088;-78
2022/12/14 07:56:20;;;;;;;24.17;9.68;;;;;;;-2.45;100.00;98140.00;4476691;31;20511;-75
2022/12/14 07:58:48;;;;;;;21.70;8.88;;;;;;;-2.53;100.00;98157.47;4474458;31;20505;-77
2022/12/14 08:01:17;;;;;;;16.62;7.78;;;;;;;-2.52;100.00;98167.66;4482843;31;20167;-78
2022/12/14 08:03:46;;;;;;;26.25;9.90;;;;;;;-2.52;100.00;98162.53;4483538;32;20111;-77
2022/12/14 08:06:14;;;;;;;24.70;11.02;;;;;;;-2.55;100.00;98159.28;4482762;32;20151;-77
2022/12/14 08:08:42;;;;;;;21.87;8.88;;;;;;;-2.73;100.00;98148.94;4480777;31;20465;-76
2022/12/14 08:11:12;;;;;;;13.27;6.65;;;;;;;-2.58;100.00;98138.91;4483050;31;20106;-81
2022/12/14 08:13:39;;;;;;;21.65;9.18;;;;;;;-2.46;100.00;98137.53;4482061;31;20247;-78
2022/12/14 08:16:12;;;;;;;21.70;9.73;;;;;;;-2.29;100.00;98139.28;4482992;31;20156;-77
2022/12/14 08:18:41;;;;;;;24.15;10.93;;;;;;;-2.25;100.00;98133.13;4477558;31;20572;-77
2022/12/14 08:21:09;;;;;;;20.00;10.30;;;;;;;-2.46;100.00;98128.09;4481505;31;20095;-79
2022/12/14 08:23:37;;;;;;;26.65;9.23;;;;;;;-2.41;100.00;98128.69;4474064;32;20607;-77
2022/12/14 08:26:05;;;;;;;20.50;8.65;;;;;;;-2.50;100.00;98141.94;4474323;31;20164;-77
2022/12/14 08:28:33;;;;;;;24.10;10.57;;;;;;;-2.30;100.00;98135.06;4480412;31;21212;-78
2022/12/14 08:31:09;;;;;;;24.20;8.93;;;;;;;-2.25;100.00;98130.56;4481339;32;20636;-76
2022/12/14 08:33:37;;;;;;;19.12;8.52;;;;;;;-2.26;100.00;98122.00;4474523;31;20114;-75
2022/12/14 08:36:08;;;;;;;17.15;8.68;;;;;;;-2.25;100.00;98126.25;4475536;32;20517;-74
2022/12/14 08:38:36;;;;;;;28.90;11.52;;;;;;;-2.29;100.00;98116.22;4480000;32;20436;-75
2022/12/14 08:41:04;;;;;;;23.83;9.35;;;;;;;-2.36;100.00;98098.53;4484074;31;20120;-77
2022/12/14 08:43:31;;;;;;;19.87;8.07;;;;;;;-2.30;100.00;98106.84;4478212;32;20455;-78
2022/12/14 08:45:59;;;;;;;27.67;10.43;;;;;;;-2.16;100.00;98095.00;4482725;32;20164;-79
2022/12/14 08:48:27;;;;;;;31.00;8.95;;;;;;;-2.25;100.00;98112.59;4483793;31;20148;-78
2022/12/14 08:51:00;;;;;;;25.35;11.20;;;;;;;-2.14;100.00;98098.31;4485430;31;20769;-78
2022/12/14 08:53:27;;;;;;;23.12;8.73;;;;;;;-2.31;100.00;98095.75;4485991;31;20108;-77
2022/12/14 08:55:55;;;;;;;29.73;9.38;;;;;;;-2.16;100.00;98095.00;4485108;32;20118;-78
2022/12/14 08:58:22;;;;;;;21.62;6.70;;;;;;;-2.18;100.00;98096.84;4484188;32;20119;-79
2022/12/14 09:00:49;;;;;;;19.60;9.15;;;;;;;-2.04;100.00;98096.16;4484285;31;20159;-78
2022/12/14 09:03:16;;;;;;;22.42;7.78;;;;;;;-2.14;100.00;98087.25;4482427;31;20131;-78
2022/12/14 09:05:43;;;;;;;27.25;9.57;;;;;;;-1.88;100.00;98097.97;4473309;31;20105;-78
2022/12/14 09:08:11;;;;;;;19.27;8.73;;;;;;;-1.78;100.00;98104.31;4482886;31;20127;-77
2022/12/14 09:10:38;;;;;;;21.02;7.35;;;;;;;-1.61;100.00;98096.56;4475523;31;20093;-77
2022/12/14 09:13:05;;;;;;;19.90;8.85;;;;;;;-1.67;100.00;98102.03;4483474;31;20108;-83
2022/12/14 09:15:32;;;;;;;29.95;9.85;;;;;;;-1.72;100.00;98096.31;4485101;31;20105;-77
2022/12/14 09:17:59;;;;;;;16.33;8.38;;;;;;;-1.71;100.00;98099.69;4483687;32;20849;-81
2022/12/14 09:20:26;;;;;;;21.02;8.63;;;;;;;-1.55;100.00;98099.75;4481939;31;20164;-83
2022/12/14 09:22:56;;;;;;;15.63;7.70;;;;;;;-1.75;100.00;98103.34;4482922;32;20115;-80
2022/12/14 09:25:24;;;;;;;22.95;10.10;;;;;;;-1.79;100.00;98098.34;4484605;31;20124;-80
2022/12/14 09:27:51;;;;;;;26.85;10.30;;;;;;;-1.93;100.00;98103.31;4484583;32;20088;-78
2022/12/14 09:30:19;;;;;;;29.73;12.13;;;;;;;-1.97;100.00;98092.41;4480035;31;20234;-78
2022/12/14 09:32:52;;;;;;;15.45;6.18;;;;;;;-1.90;100.00;98085.22;4484354;32;20092;-78
2022/12/14 09:35:19;;;;;;;21.23;8.98;;;;;;;-1.86;100.00;98083.31;4484012;32;20100;-81
2022/12/14 09:37:46;;;;;;;19.77;8.23;;;;;;;-1.77;100.00;98095.72;4482734;31;20110;-79
2022/12/14 09:40:15;;;;;;;32.88;11.35;;;;;;;-1.75;100.00;98085.38;4483826;31;20590;-80
2022/12/14 09:42:58;;;;;;;19.73;6.78;;;;;;;-1.69;100.00;98087.63;4485367;31;20803;-77
2022/12/14 09:45:29;;;;;;;25.37;10.82;;;;;;;-1.67;100.00;98081.47;4477401;32;20446;-80
2022/12/14 09:48:19;;;;;;;14.63;7.68;;;;;;;-1.61;100.00;98076.03;4480197;31;20183;-78
2022/12/14 09:50:52;;;;;;;26.20;12.45;;;;;;;-1.77;100.00;98064.06;4481443;32;20532;-81
2022/12/14 09:53:20;;;;;;;;;;;;;;;-1.76;100.00;98056.28;4482713;32;20181;-79
2022/12/14 09:55:49;;;;;;;16.27;6.40;;;;;;;-1.51;100.00;98055.03;4483537;31;19991;-80
2022/12/14 09:58:26;;;;;;;14.87;7.87;;;;;;;-1.50;100.00;98047.25;4483690;31;20143;-77
2022/12/14 10:01:36;;;;;;;22.65;9.52;;;;;;;-1.53;100.00;98026.87;4480922;32;20132;-77
2022/12/14 10:04:31;;;;;;;23.02;8.82;;;;;;;-1.37;100.00;98032.00;4475370;32;20777;-77
2022/12/14 10:07:11;;;;;;;27.10;9.07;;;;;;;-1.58;100.00;98025.44;4474265;32;20145;-75
2022/12/14 10:10:11;;;;;;;16.48;7.37;;;;;;;-1.64;100.00;98035.09;4488467;31;20104;-77
2022/12/14 10:12:49;;;;;;;24.40;9.57;;;;;;;-1.41;100.00;98045.09;4416650;32;20086;-74
2022/12/14 10:15:35;;;;;;;20.80;8.75;;;;;;;-1.23;100.00;98039.00;4413449;32;20184;-75
2022/12/14 10:18:08;;;;;;;15.93;7.53;;;;;;;-1.21;100.00;98049.19;4413161;32;20132;-74
2022/12/14 10:21:14;;;;;;;15.65;7.53;;;;;;;-1.32;100.00;98024.91;4413412;32;20120;-80
2022/12/14 10:23:51;;;;;;;24.40;8.98;;;;;;;-1.51;100.00;98011.37;4398302;32;20127;-78
2022/12/14 10:26:21;;;;;;;23.98;11.12;;;;;;;-1.36;100.00;98010.56;4412587;32;20590;-79
2022/12/14 10:28:56;;;;;;;19.95;9.35;;;;;;;-1.44;100.00;98012.69;4417662;32;20097;-76
2022/12/14 10:31:49;;;;;;;16.87;8.35;;;;;;;-1.33;100.00;98012.13;4418099;32;20197;-76
2022/12/14 10:34:19;;;;;;;19.75;9.07;;;;;;;-1.33;100.00;98020.66;4419352;32;20123;-79
2022/12/14 10:36:54;;;;;;;27.20;9.93;;;;;;;-1.37;100.00;98015.78;4413846;32;20114;-81
2022/12/14 10:39:29;;;;;;;25.00;8.73;;;;;;;-1.39;100.00;98000.44;4415538;32;20117;-75
2022/12/14 10:42:01;;;;;;;26.83;9.57;;;;;;;-1.46;100.00;97986.25;4414183;32;20128;-76
2022/12/14 10:44:47;;;;;;;15.63;8.07;;;;;;;-1.35;100.00;97983.94;4415465;32;20180;-76
2022/12/14 10:47:33;;;;;;;30.10;10.95;;;;;;;-1.41;100.00;97976.56;4416408;32;20133;-77
2022/12/14 10:50:17;;;;;;;24.70;9.95;;;;;;;-1.21;100.00;97982.38;4472508;32;20112;-76
2022/12/14 10:52:48;;;;;;;28.58;11.12;;;;;;;-1.23;100.00;97977.31;4475165;32;20468;-78
2022/12/14 10:55:18;;;;;;;18.37;8.45;;;;;;;-1.34;100.00;97977.91;4480153;31;20081;-76
2022/12/14 10:57:45;;;;;;;20.95;9.10;;;;;;;-1.20;100.00;97971.19;4481449;32;20100;-76
2022/12/14 11:00:15;;;;;;;19.12;9.23;;;;;;;-1.05;100.00;97975.50;4482651;31;20140;-77
2022/12/14 11:02:53;;;;;;;21.90;9.43;;;;;;;-1.12;100.00;97987.00;4482935;31;20141;-76
2022/12/14 11:05:50;;;;;;;16.87;7.00;;;;;;;-1.29;100.00;97988.78;4483565;31;20526;-76
2022/12/14 11:08:36;;;;;;;17.60;6.87;;;;;;;-1.15;100.00;97990.59;4481551;32;20118;-75
2022/12/14 11:11:24;;;;;;;20.85;8.07;;;;;;;-1.04;100.00;97981.47;4482926;32;20573;-77
2022/12/14 11:14:08;;;;;;;25.52;10.07;;;;;;;-1.03;100.00;97977.97;4481274;32;20514;-75
2022/12/14 11:16:38;;;;;;;16.62;8.57;;;;;;;-1.04;100.00;97979.72;4492044;31;20149;-78
2022/12/14 11:19:21;;;;;;;23.35;10.13;;;;;;;-1.01;100.00;97965.87;4470264;32;20097;-75
2022/12/14 11:22:03;;;;;;;26.12;9.95;;;;;;;-0.98;100.00;97971.69;4484673;31;20426;-76
2022/12/14 11:24:31;;;;;;;22.37;8.95;;;;;;;-1.13;100.00;97957.09;4483088;31;20156;-76
2022/12/14 11:27:00;;;;;;;17.08;7.68;;;;;;;-1.12;100.00;97953.59;4475510;32;20118;-77
2022/12/14 11:29:36;;;;;;;26.95;11.73;;;;;;;-1.05;100.00;97952.34;4473138;32;20494;-77
2022/12/14 11:32:05;;;;;;;23.50;9.27;;;;;;;-1.12;100.00;97943.31;4474912;32;20876;-77
2022/12/14 11:34:38;;;;;;;22.52;9.95;;;;;;;-1.14;100.00;97943.41;4480561;32;20103;-77
2022/12/14 11:37:13;;;;;;;41.25;11.73;;;;;;;-0.99;100.00;97944.31;4475781;31;20147;-75
2022/12/14 11:39:41;;;;;;;21.70;8.95;;;;;;;-0.93;100.00;97938.81;4477699;32;20124;-77
2022/12/14 11:42:17;;;;;;;22.40;9.43;;;;;;;-0.91;100.00;97924.16;4479086;32;20131;-78
2022/12/14 11:44:47;;;;;;;22.77;8.98;;;;;;;-1.02;100.00;97918.75;4476239;32;20153;-78
2022/12/14 11:47:22;;;;;;;23.10;9.35;;;;;;;-1.13;100.00;97919.38;4480886;32;20123;-76
2022/12/14 11:49:54;;;;;;;28.10;10.95;;;;;;;-1.09;100.00;97922.59;4478994;31;20424;-76
2022/12/14 11:52:42;;;;;;;25.48;9.82;;;;;;;-1.21;100.00;97918.97;4477947;32;20093;-75
2022/12/14 11:55:16;;;;;;;19.02;7.50;;;;;;;-1.10;100.00;97913.25;4477057;32;20110;-74
2022/12/14 11:57:57;;;;;;;23.50;9.00;;;;;;;-1.05;100.00;97900.13;4474448;32;20513;-75